Time;durP1;ratioP1;P1;durP2;ratioP2;P2;SDS_P1;SDS_P2;PMS_P1;PMS_P2;Temp;Humidity;BMP_temperature;BMP_pressure;BME280_temperature;BME280_humidity;BME280_pressure;Samples;Min_cycle;Max_cycle;Signal;HPM_P1;HPM_P2
2021/12/25 00:02:06;;;;;;;19.25;9.40;;;;;;;4.98;47.69;93520.50;5027809;28;20068;-75
2021/12/25 00:04:31;;;;;;;15.73;8.75;;;;;;;5.38;47.37;93524.41;5026346;28;20373;-76
2021/12/25 00:06:57;;;;;;;14.25;7.75;;;;;;;4.81;47.99;93504.38;5027876;28;20047;-75
2021/12/25 00:09:22;;;;;;;11.60;6.85;;;;;;;5.14;48.41;93540.28;5025435;28;20109;-75
2021/12/25 00:11:48;;;;;;;12.82;7.65;;;;;;;4.87;48.32;93530.41;5026735;28;20467;-76
2021/12/25 00:14:13;;;;;;;15.95;7.50;;;;;;;4.13;50.04;93544.94;5026458;28;20550;-75
2021/12/25 00:16:39;;;;;;;16.75;9.25;;;;;;;3.74;51.36;93558.19;5028527;28;20032;-75
2021/12/25 00:19:04;;;;;;;16.58;8.68;;;;;;;3.53;51.97;93559.41;5026703;28;20348;-75
2021/12/25 00:21:30;;;;;;;12.70;7.45;;;;;;;3.57;51.66;93549.13;5027484;28;20029;-74
2021/12/25 00:23:55;;;;;;;13.25;7.25;;;;;;;3.33;52.58;93549.81;5026776;28;20052;-75
2021/12/25 00:26:38;;;;;;;14.18;7.40;;;;;;;3.99;51.20;93559.81;5015659;28;20094;-75
2021/12/25 00:29:28;;;;;;;14.25;7.40;;;;;;;3.25;52.54;93595.09;5024116;28;20045;-74
2021/12/25 00:32:10;;;;;;;11.18;7.03;;;;;;;3.39;52.64;93590.00;5027522;28;20102;-75
2021/12/25 00:34:39;;;;;;;13.05;7.65;;;;;;;3.55;51.40;93557.28;5023657;28;21428;-76
2021/12/25 00:37:05;;;;;;;11.43;6.68;;;;;;;4.32;50.48;93599.50;5025104;28;20061;-75
2021/12/25 00:39:31;;;;;;;12.73;7.13;;;;;;;4.39;50.07;93599.97;5026719;28;20028;-76
2021/12/25 00:41:58;;;;;;;13.75;7.28;;;;;;;4.50;49.89;93604.09;5024602;28;20095;-75
2021/12/25 00:44:23;;;;;;;14.15;6.68;;;;;;;4.45;49.88;93589.13;5023725;28;20072;-75
2021/12/25 00:46:49;;;;;;;9.45;6.55;;;;;;;4.81;49.04;93584.22;5028026;28;20124;-75
2021/12/25 00:49:14;;;;;;;11.82;6.20;;;;;;;4.36;49.82;93582.88;5026000;28;20045;-75
2021/12/25 00:51:40;;;;;;;13.10;6.63;;;;;;;4.65;49.13;93593.34;5027638;28;20078;-75
2021/12/25 00:54:05;;;;;;;12.88;6.78;;;;;;;4.73;48.93;93571.69;5024819;28;20596;-74
2021/12/25 00:56:31;;;;;;;11.35;6.95;;;;;;;5.24;48.14;93582.34;5009279;28;20160;-75
2021/12/25 00:58:56;;;;;;;9.75;5.82;;;;;;;5.43;47.61;93590.28;5025420;28;20106;-76
2021/12/25 01:01:21;;;;;;;10.82;5.68;;;;;;;5.12;47.78;93559.06;5010244;28;20120;-75
2021/12/25 01:03:48;;;;;;;9.73;6.10;;;;;;;5.24;47.77;93571.78;5022891;28;20378;-75
2021/12/25 01:06:14;;;;;;;11.82;5.72;;;;;;;5.08;47.87;93565.97;5025979;28;20028;-75
2021/12/25 01:08:40;;;;;;;11.38;6.43;;;;;;;5.08;48.13;93562.53;5027127;28;20063;-75
2021/12/25 01:11:06;;;;;;;15.55;7.78;;;;;;;5.21;47.62;93576.84;5026759;28;20511;-75
2021/12/25 01:13:37;;;;;;;18.05;7.15;;;;;;;4.75;48.47;93569.53;5011731;28;20045;-75
2021/12/25 01:31:30;;;;;;;7.70;5.00;;;;;;;5.28;47.08;93537.75;5024623;28;20510;-75
2021/12/25 01:36:58;;;;;;;12.18;5.30;;;;;;;5.44;46.48;93550.41;5029942;28;20087;-76
2021/12/25 01:47:46;;;;;;;10.10;5.60;;;;;;;4.86;48.03;93554.38;5022930;28;20048;-75
2021/12/25 01:49:58;;;;;;;9.88;5.45;;;;;;;4.75;48.60;93553.72;5027308;28;20497;-76
2021/12/25 01:52:30;;;;;;;7.05;4.13;;;;;;;4.97;48.08;93572.44;5025210;28;20070;-76
2021/12/25 01:55:03;;;;;;;10.90;6.10;;;;;;;5.06;47.81;93568.09;5028282;28;20030;-76
2021/12/25 01:57:31;;;;;;;8.10;5.43;;;;;;;5.14;47.69;93553.47;5017548;28;20040;-76
2021/12/25 01:59:58;;;;;;;7.03;4.60;;;;;;;5.21;47.18;93532.03;5025214;28;21334;-75
2021/12/25 02:02:24;;;;;;;5.22;4.57;;;;;;;5.40;47.08;93559.19;5010546;28;20033;-76
2021/12/25 02:04:50;;;;;;;9.10;4.40;;;;;;;5.37;46.76;93533.38;5028007;28;20041;-75
2021/12/25 02:07:16;;;;;;;8.63;5.38;;;;;;;5.38;46.95;93534.97;5026141;28;20615;-76
2021/12/25 02:09:42;;;;;;;6.47;4.65;;;;;;;5.39;46.81;93531.22;5028536;28;20235;-76
2021/12/25 02:12:08;;;;;;;14.73;7.35;;;;;;;5.24;47.37;93531.44;5025382;28;20563;-76
2021/12/25 02:14:35;;;;;;;12.82;6.93;;;;;;;5.16;47.92;93540.00;5007419;28;20542;-76
2021/12/25 02:17:14;;;;;;;11.50;6.93;;;;;;;5.17;47.97;93515.22;5028198;28;20025;-75
2021/12/25 02:19:59;;;;;;;12.02;6.90;;;;;;;5.45;47.76;93535.38;5007919;28;20512;-76
2021/12/25 02:22:28;;;;;;;11.93;6.57;;;;;;;5.34;47.84;93521.53;5031644;28;20136;-75
2021/12/25 02:24:53;;;;;;;15.32;7.93;;;;;;;5.14;47.78;93488.34;5030891;28;20120;-76
2021/12/25 02:27:18;;;;;;;55.45;25.90;;;;;;;5.16;48.11;93506.53;5027726;28;20028;-75
2021/12/25 02:29:44;;;;;;;21.42;10.65;;;;;;;5.23;48.41;93511.44;5026839;28;20046;-75
2021/12/25 02:32:10;;;;;;;10.00;5.63;;;;;;;5.09;47.97;93485.78;5029517;28;20409;-76
2021/12/25 02:34:35;;;;;;;11.27;7.10;;;;;;;5.35;48.23;93524.97;5007444;28;20044;-75
2021/12/25 02:37:01;;;;;;;10.80;6.25;;;;;;;5.29;48.30;93515.56;5027542;28;20033;-75
2021/12/25 02:39:26;;;;;;;15.80;7.93;;;;;;;5.33;48.35;93537.66;5031436;28;20537;-76
2021/12/25 02:41:52;;;;;;;12.70;6.93;;;;;;;5.44;48.27;93531.16;5012396;28;20041;-76
2021/12/25 02:44:17;;;;;;;28.90;14.38;;;;;;;5.38;48.18;93532.31;5031806;28;20037;-75
2021/12/25 02:46:43;;;;;;;26.00;12.70;;;;;;;5.46;48.00;93544.84;5010341;28;20033;-75
2021/12/25 02:49:12;;;;;;;19.13;10.10;;;;;;;5.49;47.95;93544.25;5030726;28;20462;-75
2021/12/25 02:51:41;;;;;;;10.02;5.50;;;;;;;5.63;47.67;93546.97;5029420;28;20088;-75
2021/12/25 02:54:06;;;;;;;7.68;4.97;;;;;;;5.78;47.35;93550.13;5027598;28;20041;-75
2021/12/25 02:56:32;;;;;;;9.13;5.05;;;;;;;5.78;47.17;93533.50;5017937;28;20124;-76
2021/12/25 02:58:57;;;;;;;9.40;4.95;;;;;;;5.73;47.28;93517.75;5013501;28;22423;-76
2021/12/25 03:01:24;;;;;;;6.53;4.57;;;;;;;5.96;47.03;93533.47;5029203;28;20036;-76
2021/12/25 03:03:50;;;;;;;7.32;4.25;;;;;;;6.04;47.00;93529.38;5010816;28;20017;-75
2021/12/25 03:06:15;;;;;;;8.38;4.38;;;;;;;5.99;46.88;93524.97;5030866;28;20036;-76
2021/12/25 03:08:42;;;;;;;8.63;4.60;;;;;;;5.28;48.21;93516.66;5018249;28;20490;-74
2021/12/25 03:11:09;;;;;;;14.52;6.38;;;;;;;4.00;51.22;93526.38;5031105;28;20524;-75
2021/12/25 03:13:43;;;;;;;19.08;8.80;;;;;;;3.19;53.69;93538.34;5010675;28;20530;-74
2021/12/25 03:16:09;;;;;;;27.35;12.75;;;;;;;3.04;54.36;93530.56;5017742;28;20107;-76
2021/12/25 03:18:43;;;;;;;22.38;10.95;;;;;;;4.04;52.46;93530.81;5025380;28;20029;-74
2021/12/25 03:21:09;;;;;;;13.10;8.10;;;;;;;4.02;51.25;93498.72;5028939;28;20033;-75
2021/12/25 03:23:36;;;;;;;12.48;7.00;;;;;;;4.20;51.17;93513.81;5027368;28;20044;-75
2021/12/25 03:26:03;;;;;;;16.63;8.18;;;;;;;4.24;51.07;93500.84;5012941;28;20037;-75
2021/12/25 03:28:32;;;;;;;11.23;6.78;;;;;;;4.51;51.03;93550.31;5025864;28;20037;-76
2021/12/25 03:31:04;;;;;;;25.55;10.32;;;;;;;3.77;52.54;93538.44;5028412;28;20037;-76
2021/12/25 03:33:30;;;;;;;29.02;12.40;;;;;;;4.19;51.61;93538.56;5029525;28;20056;-75
2021/12/25 03:35:57;;;;;;;16.25;9.10;;;;;;;4.23;50.96;93499.28;5027898;28;20050;-76
2021/12/25 03:38:24;;;;;;;15.80;7.72;;;;;;;4.58;50.69;93548.16;5016182;28;20056;-75
2021/12/25 03:40:51;;;;;;;10.32;6.82;;;;;;;4.59;51.13;93547.88;5028095;28;20067;-76
2021/12/25 03:43:18;;;;;;;11.02;6.10;;;;;;;4.71;50.37;93523.75;5026816;28;20064;-75
2021/12/25 03:45:45;;;;;;;14.98;6.72;;;;;;;4.92;49.98;93519.78;5026889;28;20028;-76
2021/12/25 03:58:33;;;;;;;9.23;5.18;;;;;;;4.81;49.94;93514.94;5030380;28;20107;-75
2021/12/25 04:01:11;;;;;;;10.77;5.80;;;;;;;3.59;53.48;93545.16;5028230;28;20040;-76
2021/12/25 04:04:00;;;;;;;10.02;5.72;;;;;;;3.34;53.99;93538.25;5027324;28;20477;-77
2021/12/25 04:06:25;;;;;;;8.07;5.38;;;;;;;3.63;53.84;93517.25;5029149;28;20057;-77
2021/12/25 04:08:52;;;;;;;11.02;4.93;;;;;;;4.33;52.61;93543.16;5012570;28;20042;-76
2021/12/25 04:11:27;;;;;;;13.50;6.10;;;;;;;4.46;51.72;93524.06;5031206;28;20037;-76
2021/12/25 04:13:53;;;;;;;10.07;6.68;;;;;;;4.91;50.69;93541.16;5029087;28;20552;-76
2021/12/25 04:16:18;;;;;;;11.60;7.22;;;;;;;4.92;50.54;93554.03;5027934;28;20037;-76
2021/12/25 04:18:44;;;;;;;6.78;5.07;;;;;;;5.00;50.48;93553.41;5027723;28;20025;-76
2021/12/25 04:21:09;;;;;;;9.82;5.40;;;;;;;5.06;50.45;93560.19;5028861;28;20036;-77
2021/12/25 04:23:38;;;;;;;9.98;4.63;;;;;;;5.13;50.23;93547.44;5026181;28;20033;-76
2021/12/25 04:26:04;;;;;;;7.68;4.47;;;;;;;5.32;49.68;93525.56;5026923;28;20037;-76
2021/12/25 04:28:38;;;;;;;6.35;5.03;;;;;;;5.30;49.49;93538.22;5028134;28;20048;-76
2021/12/25 04:31:23;;;;;;;6.82;4.05;;;;;;;5.45;49.32;93548.56;5009743;28;20041;-76
2021/12/25 04:48:00;;;;;;;12.82;6.07;;;;;;;5.45;48.88;93520.31;5027460;28;20513;-76
2021/12/25 05:04:34;;;;;;;11.07;7.13;;;;;;;4.83;50.47;93574.19;4938619;28;20043;-77
2021/12/25 05:07:00;;;;;;;12.40;7.13;;;;;;;4.74;50.70;93583.00;4936314;28;20040;-77
2021/12/25 05:09:26;;;;;;;10.27;6.47;;;;;;;5.06;50.19;93594.44;4974833;28;20290;-76
2021/12/25 05:11:53;;;;;;;9.55;5.72;;;;;;;5.11;49.92;93583.84;5028142;28;20060;-75
2021/12/25 05:14:18;;;;;;;6.15;5.38;;;;;;;4.15;51.34;93587.56;5029091;28;20037;-76
2021/12/25 05:16:44;;;;;;;10.13;4.53;;;;;;;4.22;52.11;93597.75;5026919;28;20128;-76
2021/12/25 05:19:09;;;;;;;10.38;5.10;;;;;;;3.22;53.72;93579.88;5027723;28;20174;-76
2021/12/25 05:21:35;;;;;;;8.85;5.38;;;;;;;3.27;54.50;93597.47;5016032;28;20033;-76
2021/12/25 05:24:01;;;;;;;7.82;4.68;;;;;;;3.39;54.26;93595.25;5014004;28;20059;-75
2021/12/25 05:26:26;;;;;;;6.10;4.57;;;;;;;4.11;53.35;93601.56;5028829;28;20542;-75
2021/12/25 05:29:02;;;;;;;8.82;5.53;;;;;;;3.82;53.01;93567.31;5027110;28;20044;-76
2021/12/25 05:31:28;;;;;;;;;;;;;;;4.44;52.31;93600.72;5008846;28;20120;-76
2021/12/25 05:33:54;;;;;;;9.27;4.93;;;;;;;4.62;51.91;93601.84;5023951;28;19924;-76
2021/12/25 05:36:19;;;;;;;6.38;4.38;;;;;;;4.42;51.47;93560.69;5023932;28;20040;-75
2021/12/25 05:38:45;;;;;;;9.98;4.93;;;;;;;4.34;52.27;93584.22;5026790;28;20044;-75
2021/12/25 05:41:12;;;;;;;6.72;4.35;;;;;;;4.52;51.96;93581.66;5026295;28;20041;-76
2021/12/25 05:43:38;;;;;;;8.10;4.45;;;;;;;4.86;50.92;93563.06;5023093;28;20037;-76
2021/12/25 05:46:03;;;;;;;10.02;5.28;;;;;;;5.14;50.21;93567.44;5027195;28;20574;-76
2021/12/25 05:48:29;;;;;;;8.25;4.47;;;;;;;4.78;50.88;93600.59;5023384;28;20103;-77
2021/12/25 05:50:55;;;;;;;10.98;5.90;;;;;;;5.09;50.87;93601.78;5024775;28;20042;-76
2021/12/25 05:53:20;;;;;;;6.32;4.22;;;;;;;5.38;50.00;93587.69;5029145;28;20041;-76
2021/12/25 05:55:45;;;;;;;6.15;3.60;;;;;;;5.76;49.21;93609.56;5029928;28;20487;-76
2021/12/25 05:58:11;;;;;;;7.75;4.75;;;;;;;5.76;48.74;93591.88;5026672;28;21002;-75
2021/12/25 06:00:37;;;;;;;8.13;5.00;;;;;;;6.10;48.42;93635.69;5032870;28;20060;-76
2021/12/25 06:03:04;;;;;;;7.70;4.63;;;;;;;5.79;48.06;93588.66;5028864;28;20123;-74
2021/12/25 06:05:30;;;;;;;9.82;5.30;;;;;;;5.83;48.74;93626.56;5028885;28;20040;-75
2021/12/25 06:07:56;;;;;;;10.30;5.53;;;;;;;5.99;48.27;93598.88;5028973;28;20045;-75
2021/12/25 06:10:22;;;;;;;9.18;4.63;;;;;;;5.55;48.45;93607.22;5020792;28;20107;-76
2021/12/25 06:12:48;;;;;;;10.40;5.25;;;;;;;4.94;49.98;93612.50;5029927;28;20384;-76
2021/12/25 06:15:19;;;;;;;8.15;4.80;;;;;;;4.78;51.06;93611.13;5030795;28;20554;-75
2021/12/25 06:17:45;;;;;;;7.53;4.10;;;;;;;5.18;49.88;93582.72;5031061;28;20037;-75
2021/12/25 06:20:11;;;;;;;11.80;5.55;;;;;;;5.78;49.09;93616.09;5030968;28;20098;-76
2021/12/25 06:22:37;;;;;;;11.77;6.28;;;;;;;5.80;48.64;93616.59;5027992;28;20041;-75
2021/12/25 06:25:04;;;;;;;9.27;6.22;;;;;;;6.01;48.63;93638.19;5030264;28;20033;-75
2021/12/25 06:27:29;;;;;;;8.88;4.97;;;;;;;5.89;48.47;93632.56;5028844;28;20492;-75
2021/12/25 06:29:55;;;;;;;8.60;5.43;;;;;;;5.87;48.65;93629.44;5029606;28;20037;-75
2021/12/25 06:32:20;;;;;;;17.00;8.23;;;;;;;5.03;50.32;93597.66;5016352;28;20072;-75
2021/12/25 06:34:46;;;;;;;10.55;6.00;;;;;;;5.73;49.28;93605.63;5016081;28;21065;-75
2021/12/25 06:37:12;;;;;;;11.60;6.55;;;;;;;6.24;48.30;93616.19;5008107;28;20152;-75
2021/12/25 06:39:39;;;;;;;14.25;7.55;;;;;;;6.07;48.27;93617.78;5029437;28;20548;-75
2021/12/25 06:42:06;;;;;;;15.45;7.93;;;;;;;6.22;48.02;93633.38;5019928;28;20037;-75
2021/12/25 06:44:31;;;;;;;13.65;6.30;;;;;;;5.85;48.84;93639.50;5030607;28;20501;-75
2021/12/25 06:46:57;;;;;;;13.68;7.00;;;;;;;6.10;48.18;93611.91;5018028;28;20044;-75
2021/12/25 06:49:23;;;;;;;11.32;7.35;;;;;;;6.40;47.68;93646.56;5030503;28;20056;-76
2021/12/25 06:51:50;;;;;;;11.65;6.40;;;;;;;6.14;47.85;93615.53;5013661;28;20512;-76
2021/12/25 06:54:15;;;;;;;13.82;7.97;;;;;;;6.35;47.52;93624.72;5013385;28;20057;-76
2021/12/25 06:56:44;;;;;;;9.40;6.25;;;;;;;5.44;49.30;93647.19;5008155;28;20726;-76
2021/12/25 06:59:10;;;;;;;16.25;8.18;;;;;;;5.87;48.57;93624.94;5030735;28;20033;-77
2021/12/25 07:01:37;;;;;;;15.98;7.68;;;;;;;6.06;48.37;93621.50;5015017;28;20044;-76
2021/12/25 07:04:03;;;;;;;12.18;7.70;;;;;;;6.42;47.83;93648.88;5023636;28;20041;-75
2021/12/25 07:06:29;;;;;;;18.08;9.43;;;;;;;6.52;47.35;93638.16;5027085;28;20517;-76
2021/12/25 07:08:54;;;;;;;20.33;10.23;;;;;;;6.57;47.27;93651.28;5027620;28;20584;-76
2021/12/25 07:11:20;;;;;;;16.65;8.52;;;;;;;6.72;46.96;93660.78;5026825;28;20037;-76
2021/12/25 07:13:47;;;;;;;10.48;6.93;;;;;;;6.69;47.09;93648.94;5029380;28;20067;-75
2021/12/25 07:16:13;;;;;;;13.95;7.38;;;;;;;6.58;46.97;93642.28;5028101;28;20523;-76
2021/12/25 07:18:39;;;;;;;8.90;5.72;;;;;;;6.89;46.81;93653.09;5027891;28;20054;-75
2021/12/25 07:21:06;;;;;;;9.68;5.80;;;;;;;6.80;47.00;93655.59;5029705;28;20500;-76
2021/12/25 07:23:32;;;;;;;10.60;6.18;;;;;;;6.42;47.16;93651.53;5027137;28;20033;-75
2021/12/25 07:25:59;;;;;;;11.38;7.60;;;;;;;6.46;47.67;93649.88;5028427;28;20071;-75
2021/12/25 07:28:24;;;;;;;12.07;6.38;;;;;;;5.83;48.51;93623.94;5030665;28;20527;-76
2021/12/25 07:30:50;;;;;;;11.13;5.95;;;;;;;5.85;49.40;93655.34;5006143;28;20060;-75
2021/12/25 07:33:17;;;;;;;8.35;5.25;;;;;;;5.06;50.55;93638.47;5031435;28;20021;-75
2021/12/25 07:35:43;;;;;;;19.63;10.63;;;;;;;5.56;50.55;93664.19;5028893;28;20029;-76
2021/12/25 07:38:08;;;;;;;28.63;13.10;;;;;;;5.50;50.40;93665.31;5024555;28;20412;-76
2021/12/25 07:40:34;;;;;;;19.38;11.95;;;;;;;5.48;50.90;93650.88;5028864;28;20564;-76
2021/12/25 07:42:59;;;;;;;28.70;11.82;;;;;;;5.98;49.43;93655.38;5025684;28;20037;-76
2021/12/25 07:45:25;;;;;;;20.42;11.57;;;;;;;6.28;48.87;93674.50;5019751;28;20686;-75
2021/12/25 07:47:58;;;;;;;28.55;15.23;;;;;;;6.33;48.91;93677.84;5025980;28;21074;-76
2021/12/25 07:50:24;;;;;;;29.48;15.13;;;;;;;6.56;48.40;93681.41;5030335;28;20036;-76
2021/12/25 07:52:50;;;;;;;24.08;13.07;;;;;;;5.90;49.06;93673.72;5026318;28;20083;-76
2021/12/25 07:55:15;;;;;;;24.05;13.95;;;;;;;6.33;48.71;93667.28;5030388;28;20644;-76
2021/12/25 07:57:40;;;;;;;20.42;13.32;;;;;;;6.48;48.01;93673.38;5023662;28;20377;-75
2021/12/25 08:00:09;;;;;;;30.25;15.95;;;;;;;6.72;47.73;93672.13;5029714;28;20048;-76
2021/12/25 08:02:35;;;;;;;23.98;14.10;;;;;;;6.88;47.51;93677.16;5029165;28;20038;-76
2021/12/25 08:05:00;;;;;;;17.05;9.02;;;;;;;6.86;47.27;93672.94;5012791;28;20053;-75
2021/12/25 08:07:26;;;;;;;18.40;9.27;;;;;;;6.32;47.95;93670.19;5027805;28;20509;-76
2021/12/25 08:09:56;;;;;;;16.98;9.20;;;;;;;6.64;47.83;93693.19;5025744;28;20446;-75
2021/12/25 08:12:21;;;;;;;52.40;20.27;;;;;;;5.96;49.05;93683.94;5027823;28;20034;-76
2021/12/25 08:14:47;;;;;;;25.67;11.82;;;;;;;6.25;48.97;93675.06;5010701;28;20041;-75
2021/12/25 08:17:13;;;;;;;18.98;10.32;;;;;;;6.65;48.19;93669.09;5028363;28;20059;-76
2021/12/25 08:19:38;;;;;;;12.75;7.90;;;;;;;6.73;47.83;93681.66;5029645;28;20036;-76
2021/12/25 08:22:03;;;;;;;11.88;8.02;;;;;;;5.88;49.23;93691.69;5028906;28;20033;-75
2021/12/25 08:24:29;;;;;;;16.02;10.02;;;;;;;5.47;50.30;93686.22;5025996;28;20114;-75
2021/12/25 08:26:55;;;;;;;20.35;9.77;;;;;;;5.26;50.51;93664.59;5027411;28;20033;-75
2021/12/25 08:29:20;;;;;;;21.13;12.60;;;;;;;5.17;51.47;93684.75;5026099;28;20063;-76
2021/12/25 08:31:46;;;;;;;17.27;9.68;;;;;;;5.63;50.49;93684.16;5028036;28;20152;-76
2021/12/25 08:34:11;;;;;;;16.90;10.25;;;;;;;5.32;51.54;93691.69;5027740;28;20037;-76
2021/12/25 08:36:37;;;;;;;22.35;13.50;;;;;;;5.81;50.14;93678.09;5016082;28;20128;-76
2021/12/25 08:39:05;;;;;;;21.90;12.25;;;;;;;6.20;49.68;93693.66;5013617;28;20051;-76
2021/12/25 08:41:31;;;;;;;23.80;11.30;;;;;;;5.78;49.89;93665.44;5025065;28;20170;-76
2021/12/25 08:44:05;;;;;;;20.20;11.27;;;;;;;5.37;51.00;93681.84;5026000;28;20125;-75
2021/12/25 08:46:55;;;;;;;10.40;7.40;;;;;;;5.36;51.48;93682.13;5026579;28;20029;-75
2021/12/25 08:49:24;;;;;;;17.35;10.15;;;;;;;5.52;51.18;93665.03;5013832;28;20037;-74
2021/12/25 08:51:51;;;;;;;18.42;8.80;;;;;;;5.52;51.57;93646.59;5024731;28;20040;-76
2021/12/25 08:54:17;;;;;;;15.00;9.15;;;;;;;5.91;50.58;93660.25;5014661;28;20023;-75
2021/12/25 08:56:43;;;;;;;15.50;8.98;;;;;;;5.66;50.91;93668.53;5016052;28;20044;-76
2021/12/25 08:59:09;;;;;;;16.63;8.75;;;;;;;5.72;50.75;93656.06;5027244;28;20513;-75
2021/12/25 09:01:35;;;;;;;13.90;7.65;;;;;;;5.53;50.95;93637.56;5026194;28;20064;-75
2021/12/25 09:04:01;;;;;;;9.02;6.13;;;;;;;5.33;51.50;93637.88;5015049;28;20167;-76
2021/12/25 09:06:26;;;;;;;11.75;6.97;;;;;;;5.63;51.59;93645.34;5027483;28;20080;-75
2021/12/25 09:08:52;;;;;;;13.63;7.03;;;;;;;5.26;52.22;93626.88;5025604;28;20135;-75
2021/12/25 09:11:18;;;;;;;11.35;6.22;;;;;;;5.39;51.84;93644.63;5017555;28;20029;-75
2021/12/25 09:13:43;;;;;;;13.80;7.55;;;;;;;4.94;52.94;93653.91;5028014;28;20044;-75
2021/12/25 09:16:09;;;;;;;10.07;6.80;;;;;;;5.11;53.22;93655.00;5025136;28;20043;-75
2021/12/25 09:18:34;;;;;;;19.45;9.77;;;;;;;5.35;52.76;93651.53;5025862;28;20501;-75
2021/12/25 09:21:00;;;;;;;17.25;8.43;;;;;;;4.87;52.13;93580.47;5025517;28;20090;-75
2021/12/25 09:23:25;;;;;;;8.68;6.18;;;;;;;5.24;52.25;93613.19;5028092;28;20584;-76
2021/12/25 09:25:51;;;;;;;14.65;6.15;;;;;;;5.35;52.46;93638.34;5027123;28;20079;-75
2021/12/25 09:28:18;;;;;;;8.27;5.55;;;;;;;5.24;52.32;93645.63;5029254;28;20482;-75
2021/12/25 09:30:44;;;;;;;15.00;6.28;;;;;;;5.07;52.54;93627.66;5027475;28;20124;-74
2021/12/25 09:33:09;;;;;;;13.10;6.05;;;;;;;5.05;52.39;93619.22;5015992;28;20317;-74
2021/12/25 09:35:35;;;;;;;7.43;5.15;;;;;;;4.88;53.08;93613.66;5027777;28;20037;-75
2021/12/25 09:38:00;;;;;;;8.43;5.03;;;;;;;4.74;53.26;93610.13;5029690;28;20055;-74
2021/12/25 09:40:26;;;;;;;10.82;5.72;;;;;;;5.06;53.33;93623.44;5031320;28;20034;-74
2021/12/25 09:42:52;;;;;;;5.05;4.35;;;;;;;5.17;52.50;93568.75;5032290;28;20040;-74
2021/12/25 09:45:18;;;;;;;15.93;6.72;;;;;;;5.46;52.39;93621.34;5028656;28;20025;-74
2021/12/25 09:47:44;;;;;;;10.40;6.68;;;;;;;5.28;52.48;93601.81;5031433;28;20035;-74
2021/12/25 09:50:10;;;;;;;8.13;5.38;;;;;;;5.40;52.33;93609.28;5028393;28;20131;-75
2021/12/25 09:52:36;;;;;;;10.75;5.78;;;;;;;5.30;52.33;93597.03;5030913;28;20155;-75
2021/12/25 09:55:02;;;;;;;10.48;6.50;;;;;;;5.04;52.48;93583.38;5029479;28;20048;-74
2021/12/25 09:57:28;;;;;;;15.40;6.43;;;;;;;5.02;53.07;93595.28;5032824;28;20017;-74
2021/12/25 09:59:53;;;;;;;13.45;6.15;;;;;;;5.04;53.02;93580.75;5017611;28;20079;-74
2021/12/25 10:02:20;;;;;;;9.02;5.55;;;;;;;4.81;52.94;93551.81;5029175;28;20948;-74
2021/12/25 10:04:49;;;;;;;9.18;5.57;;;;;;;5.10;52.76;93571.72;5031718;28;20029;-74
2021/12/25 10:07:27;;;;;;;11.15;5.68;;;;;;;5.36;52.10;93601.16;5031780;28;20096;-74
2021/12/25 10:10:14;;;;;;;7.43;4.93;;;;;;;5.44;51.82;93587.31;5026488;28;20029;-75
2021/12/25 10:12:43;;;;;;;12.77;5.90;;;;;;;5.33;52.36;93590.41;5032623;28;20036;-74
2021/12/25 10:15:21;;;;;;;12.65;7.15;;;;;;;5.50;52.06;93603.88;5028708;28;20088;-74
2021/12/25 10:17:53;;;;;;;8.52;5.32;;;;;;;5.52;51.99;93589.34;5012692;28;20036;-74
2021/12/25 10:20:31;;;;;;;7.68;4.97;;;;;;;5.64;51.35;93594.16;5029045;28;20044;-75
2021/12/25 10:23:15;;;;;;;13.05;6.28;;;;;;;5.76;51.49;93594.50;5031770;28;20037;-74
2021/12/25 10:26:00;;;;;;;9.48;5.95;;;;;;;5.99;51.32;93588.31;5031316;28;20045;-75
2021/12/25 10:28:31;;;;;;;10.75;5.63;;;;;;;6.28;50.48;93589.97;5031744;28;20065;-75
2021/12/25 10:31:03;;;;;;;9.05;6.43;;;;;;;6.19;50.40;93586.44;5031296;28;20126;-74
2021/12/25 10:33:44;;;;;;;8.63;5.88;;;;;;;6.13;50.59;93566.44;5030217;28;20067;-74
2021/12/25 10:36:32;;;;;;;11.43;6.18;;;;;;;6.34;50.57;93568.47;5027124;28;20049;-75
2021/12/25 10:39:12;;;;;;;11.73;5.78;;;;;;;6.89;49.46;93572.97;5018619;28;20409;-75
2021/12/25 10:41:41;;;;;;;9.30;5.38;;;;;;;6.63;49.37;93560.25;5030208;28;20045;-74
2021/12/25 10:44:22;;;;;;;12.02;6.65;;;;;;;6.35;50.15;93563.97;5030586;28;20033;-75
2021/12/25 10:46:51;;;;;;;9.27;6.50;;;;;;;6.20;50.62;93561.59;5011763;28;20069;-75
2021/12/25 10:49:17;;;;;;;10.77;5.80;;;;;;;6.47;50.29;93563.47;5029382;28;20127;-75
2021/12/25 10:51:43;;;;;;;12.20;7.00;;;;;;;6.47;50.01;93564.25;5032560;28;20627;-76
2021/12/25 10:54:11;;;;;;;13.55;7.40;;;;;;;6.22;50.61;93554.94;5029018;28;20029;-75
2021/12/25 10:56:39;;;;;;;16.13;7.68;;;;;;;6.36;50.31;93554.97;5019116;28;20044;-75
2021/12/25 10:59:11;;;;;;;12.40;6.90;;;;;;;6.25;50.53;93540.38;5030015;28;20307;-75
2021/12/25 11:01:48;;;;;;;13.20;7.25;;;;;;;6.47;50.63;93545.78;5033530;28;20036;-74
2021/12/25 11:04:25;;;;;;;17.60;8.65;;;;;;;6.54;50.39;93543.53;5012727;28;20029;-74
2021/12/25 11:06:51;;;;;;;13.70;7.32;;;;;;;6.29;50.41;93539.50;5031662;28;20083;-75
2021/12/25 11:09:16;;;;;;;13.18;7.45;;;;;;;5.88;51.39;93513.00;5029765;28;20120;-75
2021/12/25 11:11:42;;;;;;;15.43;7.53;;;;;;;6.26;51.16;93545.38;5031310;28;20393;-74
2021/12/25 11:14:07;;;;;;;14.68;7.03;;;;;;;6.22;50.90;93514.53;5030890;28;20045;-75
2021/12/25 11:16:39;;;;;;;10.07;7.22;;;;;;;6.42;50.56;93509.66;5028844;28;20030;-74
2021/12/25 11:19:16;;;;;;;13.05;8.52;;;;;;;6.52;50.07;93527.19;5028666;28;20500;-75
2021/12/25 11:21:45;;;;;;;8.35;6.38;;;;;;;6.45;50.54;93526.81;5042671;28;20021;-74
2021/12/25 11:24:20;;;;;;;15.18;8.07;;;;;;;6.43;50.45;93508.59;5028458;28;20017;-74
2021/12/25 11:26:53;;;;;;;;;;;;;;;6.24;51.00;93509.78;5033134;28;20036;-74
2021/12/25 11:29:22;;;;;;;14.05;8.13;;;;;;;6.07;51.17;93488.41;5028800;28;20700;-74
2021/12/25 11:31:50;;;;;;;10.88;6.95;;;;;;;6.33;50.83;93489.53;5030290;28;20401;-75
2021/12/25 11:34:18;;;;;;;14.57;7.55;;;;;;;6.53;50.63;93490.97;5029255;28;20238;-75
2021/12/25 11:36:48;;;;;;;11.23;7.38;;;;;;;6.53;50.67;93480.41;5029480;28;20070;-75
2021/12/25 11:39:16;;;;;;;8.90;5.88;;;;;;;6.36;50.43;93457.25;5033641;28;20107;-75
2021/12/25 11:41:42;;;;;;;14.90;9.10;;;;;;;6.42;50.28;93437.56;5032663;28;20408;-74
2021/12/25 11:44:34;;;;;;;15.30;8.93;;;;;;;6.37;50.65;93487.84;5027938;28;20041;-74
2021/12/25 11:47:04;;;;;;;13.30;7.53;;;;;;;5.90;51.17;93447.53;5031317;28;20045;-75
2021/12/25 11:49:30;;;;;;;12.30;8.70;;;;;;;6.08;51.14;93480.19;5030880;28;20525;-74
2021/12/25 11:52:13;;;;;;;18.25;9.10;;;;;;;6.19;51.34;93492.16;5027551;28;20037;-74
2021/12/25 11:57:31;;;;;;;13.80;7.97;;;;;;;6.39;50.90;93485.72;5030407;28;20038;-75
2021/12/25 11:59:52;;;;;;;13.73;8.18;;;;;;;6.24;51.05;93472.81;5031233;28;20087;-75
2021/12/25 12:02:44;;;;;;;15.52;7.78;;;;;;;6.89;50.25;93488.38;5029639;28;20571;-74
2021/12/25 12:05:26;;;;;;;14.57;8.00;;;;;;;6.78;50.10;93493.09;5024821;28;20041;-75
2021/12/25 12:08:06;;;;;;;13.55;7.63;;;;;;;6.80;49.62;93473.22;5033588;28;20045;-74
2021/12/25 12:11:01;;;;;;;12.38;7.75;;;;;;;6.48;50.66;93457.53;5028613;28;20056;-75
2021/12/25 12:13:32;;;;;;;16.95;7.88;;;;;;;7.02;49.67;93487.56;5010962;28;20048;-75
2021/12/25 12:16:01;;;;;;;10.35;7.05;;;;;;;7.19;49.45;93493.00;5029093;28;20025;-75
2021/12/25 12:18:27;;;;;;;16.92;9.23;;;;;;;7.26;48.95;93482.78;5029956;28;20009;-74
2021/12/25 12:21:06;;;;;;;12.40;6.90;;;;;;;7.19;49.14;93474.50;5014536;28;20152;-75
2021/12/25 12:23:49;;;;;;;12.30;7.07;;;;;;;7.60;48.34;93477.75;5030297;28;20373;-75
2021/12/25 12:26:44;;;;;;;22.63;10.98;;;;;;;7.60;48.11;93492.81;5012790;28;20119;-74
2021/12/25 12:29:10;;;;;;;13.98;7.38;;;;;;;7.59;48.04;93465.59;5029758;28;20041;-75
2021/12/25 12:31:46;;;;;;;14.75;7.50;;;;;;;8.32;47.59;93490.72;5028865;28;20159;-75
2021/12/25 12:34:30;;;;;;;15.70;7.78;;;;;;;8.21;46.84;93493.97;5010758;28;20462;-74
2021/12/25 12:37:13;;;;;;;14.82;9.00;;;;;;;8.23;47.68;93508.47;5013211;28;20068;-75
2021/12/25 12:40:06;;;;;;;13.93;8.05;;;;;;;8.67;46.28;93483.69;5030326;28;20412;-75
2021/12/25 12:42:44;;;;;;;15.90;8.15;;;;;;;8.33;46.63;93473.75;5021614;28;20041;-75
2021/12/25 12:45:15;;;;;;;19.13;7.85;;;;;;;8.34;46.23;93461.28;5012078;28;20124;-75
2021/12/25 12:48:01;;;;;;;12.02;7.55;;;;;;;8.84;45.92;93477.63;5011508;28;20783;-75
2021/12/25 12:50:30;;;;;;;;;;;;;;;8.93;45.41;93492.47;5026920;28;20037;-74
2021/12/25 12:53:02;;;;;;;14.85;10.25;;;;;;;8.76;45.54;93494.28;5029086;28;19927;-75